| time (UTC) | temp F | wind direction | speed knots | gust knots | rain 1hr in | rain 24hr in | rain mn in | humidity % | barometer mb |
| 20260508013002 | 44 | 179 | 1.7 | 3.5 | 0.00 | 1.37 | 1.37 | 100 | 1002.9 |
| 20260508011505 | 45 | 163 | 0.0 | 2.6 | 0.00 | 1.37 | 1.37 | 100 | 1002.5 |
| 20260508010006 | 45 | 163 | 0.9 | 2.6 | 0.00 | 1.37 | 1.37 | 100 | 1002.2 |
| 20260508004611 | 45 | 163 | 0.9 | 4.3 | 0.01 | 1.37 | 1.37 | 100 | 1002.5 |
| 20260508003105 | 46 | 169 | 0.0 | 2.6 | 0.01 | 1.37 | 1.37 | 100 | 1002.9 |
| 20260508001559 | 46 | 169 | 0.0 | 1.7 | 0.01 | 1.37 | 1.37 | 100 | 1002.5 |
| 20260508000059 | 46 | 172 | 0.0 | 4.3 | 0.01 | 1.37 | 1.37 | 100 | 1002.5 |
| 20260507234559 | 45 | 194 | 2.6 | 5.2 | 0.00 | 1.36 | 1.36 | 100 | 1002.6 |
| 20260507233058 | 46 | 184 | 1.7 | 5.2 | 0.00 | 1.36 | 1.36 | 100 | 1002.8 |
| 20260507231558 | 45 | 254 | 0.9 | 3.5 | 0.00 | 1.36 | 1.36 | 100 | 1002.4 |
| 20260507230104 | 45 | 144 | 2.6 | 10.4 | 0.00 | 1.36 | 1.36 | 100 | 1002.7 |
| 20260507224656 | 45 | 125 | 4.3 | 7.8 | 0.00 | 1.36 | 1.36 | 100 | 1003.1 |
| 20260507223100 | 45 | 140 | 1.7 | 5.2 | 0.00 | 1.36 | 1.36 | 100 | 1002.8 |
| 20260507221555 | 45 | 175 | 3.5 | 8.7 | 0.00 | 1.36 | 1.36 | 100 | 1003.0 |
| 20260507220054 | 46 | 138 | 6.1 | 11.3 | 0.00 | 1.36 | 1.36 | 100 | 1003.0 |
| 20260507214615 | 47 | 165 | 5.2 | 11.3 | 0.01 | 1.36 | 1.36 | 100 | 1003.2 |
| 20260507213104 | 48 | 159 | 7.8 | 16.5 | 0.01 | 1.36 | 1.36 | 100 | 1003.5 |
| 20260507211607 | 48 | 138 | 7.8 | 11.3 | 0.02 | 1.36 | 1.36 | 100 | 1003.3 |
| 20260507210055 | 48 | 121 | 9.6 | 15.6 | 0.07 | 1.36 | 1.36 | 100 | 1003.0 |
| 20260507204601 | 48 | 146 | 7.8 | 13.0 | 0.10 | 1.35 | 1.35 | 100 | 1002.7 |
| 20260507203053 | 48 | 138 | 6.1 | 11.3 | 0.19 | 1.35 | 1.35 | 100 | 1003.6 |
| 20260507201547 | 48 | 145 | 5.2 | 10.4 | 0.28 | 1.34 | 1.34 | 100 | 1003.9 |
| 20260507200045 | 48 | 138 | 3.5 | 7.8 | 0.40 | 1.29 | 1.29 | 100 | 1004.2 |
| 20260507194613 | 48 | 152 | 5.2 | 7.8 | 0.60 | 1.25 | 1.25 | 100 | 1004.5 |
| 20260507193041 | 48 | 161 | 2.6 | 5.2 | 0.65 | 1.15 | 1.15 | 100 | 1005.0 |
| 20260507191543 | 48 | 131 | 4.3 | 8.7 | 0.73 | 1.05 | 1.05 | 100 | 1005.3 |
| 20260507190034 | 46 | 225 | 4.3 | 11.3 | 0.72 | 0.89 | 0.89 | 100 | 1005.9 |
| 20260507184539 | 46 | 186 | 7.0 | 13.0 | 0.52 | 0.65 | 0.65 | 100 | 1005.9 |
| 20260507183037 | 45 | 164 | 4.3 | 9.6 | 0.40 | 0.51 | 0.51 | 100 | 1005.8 |
| 20260507181531 | 45 | 175 | 5.2 | 10.4 | 0.21 | 0.32 | 0.32 | 100 | 1006.3 |
| 20260507180031 | 44 | 169 | 6.1 | 11.3 | 0.07 | 0.17 | 0.17 | 100 | 1006.1 |
| 20260507174536 | 45 | 142 | 11.3 | 18.2 | 0.03 | 0.13 | 0.13 | 100 | 1005.6 |
| 20260507173035 | 45 | 173 | 6.1 | 14.8 | 0.01 | 0.11 | 0.11 | 100 | 1005.9 |
| 20260507171525 | 45 | 171 | 12.2 | 17.4 | 0.02 | 0.11 | 0.11 | 100 | 1006.4 |
| 20260507170023 | 45 | 149 | 8.7 | 13.9 | 0.01 | 0.10 | 0.10 | 100 | 1006.4 |
| 20260507164522 | 45 | 150 | 7.8 | 14.8 | 0.01 | 0.10 | 0.10 | 100 | 1006.9 |
| 20260507163020 | 45 | 147 | 7.8 | 13.0 | 0.01 | 0.10 | 0.10 | 100 | 1007.3 |
| 20260507161517 | 45 | 145 | 7.0 | 16.5 | 0.00 | 0.09 | 0.09 | 100 | 1007.8 |
| 20260507160020 | 45 | 163 | 7.8 | 14.8 | 0.00 | 0.09 | 0.09 | 100 | 1008.3 |
| 20260507154527 | 44 | 161 | 9.6 | 15.6 | 0.00 | 0.09 | 0.09 | 100 | 1008.7 |
| 20260507153028 | 44 | 127 | 6.1 | 10.4 | 0.00 | 0.09 | 0.09 | 100 | 1009.4 |
| 20260507151509 | 44 | 139 | 7.8 | 15.6 | 0.00 | 0.09 | 0.09 | 100 | 1010.0 |
| 20260507150008 | 45 | 169 | 7.0 | 15.6 | 0.00 | 0.09 | 0.09 | 100 | 1010.1 |
| 20260507144507 | 45 | 146 | 10.4 | 15.6 | 0.00 | 0.09 | 0.09 | 100 | 1010.2 |
| 20260507143005 | 45 | 140 | 12.2 | 16.5 | 0.00 | 0.09 | 0.09 | 100 | 1010.4 |
| 20260507141501 | 45 | 143 | 10.4 | 17.4 | 0.00 | 0.09 | 0.09 | 100 | 1010.7 |
| 20260507140100 | 45 | 153 | 7.8 | 17.4 | 0.00 | 0.09 | 0.09 | 100 | 1011.3 |
| 20260507134601 | 45 | 150 | 7.8 | 15.6 | 0.00 | 0.09 | 0.09 | 100 | 1011.2 |
| 20260507133109 | 45 | 151 | 12.2 | 15.6 | 0.00 | 0.09 | 0.09 | 100 | 1011.3 |
| 20260507131612 | 45 | 171 | 8.7 | 12.2 | 0.00 | 0.09 | 0.09 | 100 | 1011.9 |
| 20260507130057 | 45 | 164 | 9.6 | 15.6 | 0.01 | 0.09 | 0.09 | 100 | 1011.6 |
| 20260507124558 | 45 | 183 | 7.0 | 16.5 | 0.01 | 0.09 | 0.09 | 100 | 1011.7 |
| 20260507123055 | 46 | 150 | 12.2 | 17.4 | 0.01 | 0.09 | 0.09 | 100 | 1011.5 |
| 20260507121552 | 45 | 141 | 12.2 | 18.2 | 0.01 | 0.09 | 0.09 | 100 | 1012.0 |
| 20260507120050 | 45 | 151 | 9.6 | 20.9 | 0.00 | 0.08 | 0.08 | 100 | 1011.8 |
| 20260507114548 | 45 | 144 | 13.9 | 20.9 | 0.03 | 0.08 | 0.08 | 100 | 1012.3 |
| 20260507113046 | 45 | 169 | 12.2 | 17.4 | 0.04 | 0.08 | 0.08 | 100 | 1012.4 |
| 20260507111544 | 45 | 199 | 9.6 | 20.0 | 0.04 | 0.08 | 0.08 | 100 | 1012.4 |
| 20260507110042 | 45 | 154 | 13.0 | 21.7 | 0.04 | 0.08 | 0.08 | 100 | 1012.4 |
| 20260507104539 | 46 | 142 | 16.5 | 28.7 | 0.02 | 0.05 | 0.05 | 100 | 1012.4 |
| 20260507103036 | 45 | 132 | 10.4 | 17.4 | 0.01 | 0.04 | 0.04 | 100 | 1012.5 |
| 20260507101534 | 44 | 146 | 9.6 | 18.2 | 0.01 | 0.04 | 0.04 | 100 | 1012.7 |
| 20260507100035 | 44 | 151 | 11.3 | 18.2 | 0.00 | 0.03 | 0.03 | 100 | 1012.6 |
| 20260507094531 | 44 | 140 | 7.8 | 12.2 | 0.00 | 0.03 | 0.03 | 100 | 1012.9 |
| 20260507093029 | 44 | 148 | 3.5 | 8.7 | 0.01 | 0.03 | 0.03 | 100 | 1012.7 |
| 20260507091528 | 45 | 213 | 7.0 | 15.6 | 0.01 | 0.03 | 0.03 | 100 | 1012.5 |
| 20260507090026 | 45 | 123 | 7.8 | 13.9 | 0.01 | 0.03 | 0.03 | 100 | 1012.6 |
| 20260507084522 | 45 | 177 | 7.8 | 13.0 | 0.01 | 0.03 | 0.03 | 100 | 1013.1 |
| 20260507083021 | 45 | 186 | 3.5 | 8.7 | 0.00 | 0.02 | 0.02 | 100 | 1013.2 |
| 20260507081520 | 44 | 196 | 2.6 | 7.0 | 0.01 | 0.02 | 0.02 | 100 | 1013.2 |
| 20260507080018 | 44 | 194 | 3.5 | 9.6 | 0.01 | 0.02 | 0.02 | 100 | 1013.2 |
| 20260507074516 | 44 | 161 | 2.6 | 8.7 | 0.01 | 0.02 | 0.02 | 100 | 1013.4 |
| 20260507073015 | 44 | 151 | 3.5 | 9.6 | 0.02 | 0.02 | 0.02 | 100 | 1013.9 |
| 20260507071534 | 44 | 175 | 1.7 | 6.1 | 0.01 | 0.01 | 0.01 | 100 | 1014.3 |
| 20260507070013 | 44 | 199 | 6.1 | 10.4 | 0.01 | 0.01 | 0.01 | 100 | 1014.6 |
| 20260507064513 | 45 | 142 | 7.0 | 12.2 | 0.01 | 0.01 | 0.01 | 100 | 1014.8 |
| 20260507063008 | 46 | 158 | 7.8 | 15.6 | 0.00 | 0.00 | 0.00 | 100 | 1014.9 |
| 20260507061506 | 46 | 136 | 7.8 | 13.9 | 0.00 | 0.00 | 0.00 | 100 | 1014.9 |
| 20260507060004 | 46 | 171 | 6.1 | 10.4 | 0.00 | 0.00 | 0.00 | 100 | 1015.3 |
| 20260507054503 | 46 | 156 | 6.1 | 8.7 | 0.00 | 0.00 | 0.00 | 100 | 1015.3 |
| 20260507053129 | 45 | 152 | 6.1 | 8.7 | 0.00 | 0.00 | 0.00 | 100 | 1015.6 |
| 20260507051605 | 45 | 136 | 7.0 | 10.4 | 0.00 | 0.00 | 0.00 | 100 | 1016.0 |
| 20260507050055 | 45 | 129 | 6.1 | 8.7 | 0.00 | 0.00 | 0.00 | 100 | 1016.2 |
| 20260507044557 | 45 | 145 | 3.5 | 7.8 | 0.00 | 0.00 | 0.00 | 100 | 1016.6 |
| 20260507043053 | 45 | 143 | 2.6 | 7.0 | 0.00 | 0.00 | 0.00 | 100 | 1016.8 |
| 20260507041549 | 45 | 192 | 4.3 | 7.0 | 0.00 | 0.00 | 0.00 | 100 | 1017.3 |
| 20260507040047 | 45 | 171 | 2.6 | 8.7 | 0.00 | 0.00 | 0.00 | 100 | 1017.2 |
| 20260507034547 | 45 | 156 | 2.6 | 0.0 | 0.00 | 0.00 | 0.00 | 100 | 1017.5 |
| 20260507033050 | 44 | 165 | 2.6 | 6.1 | 0.00 | 0.00 | 0.00 | 100 | 1017.8 |
| 20260507031541 | 44 | 178 | 3.5 | 7.0 | 0.00 | 0.00 | 0.00 | 100 | 1018.1 |
| 20260507030039 | 44 | 183 | 4.3 | 7.8 | 0.00 | 0.00 | 0.00 | 100 | 1018.1 |
| 20260507024540 | 44 | 146 | 5.2 | 8.7 | 0.00 | 0.00 | 0.00 | 100 | 1018.4 |
| 20260507023038 | 44 | 135 | 6.1 | 8.7 | 0.00 | 0.00 | 0.00 | 100 | 1018.7 |
| 20260507021535 | 43 | 152 | 0.9 | 8.7 | 0.00 | 0.00 | 0.00 | 100 | 1018.8 |
| 20260507020035 | 44 | 177 | 3.5 | 7.8 | 0.00 | 0.00 | 0.00 | 100 | 1018.8 |
| 20260507014535 | 44 | 170 | 4.3 | 9.6 | 0.00 | 0.00 | 0.00 | 100 | 1019.0 |